Zanesville, Indiana
Current Conditions -  °F | °C
As of 3:54 PM on Friday 24 Oct 2014 (Local Time) from KFWA Reporting Station
Broken Clouds Broken Clouds  
Wind Chill: 62°   Ceiling: 25000
Heat Index: 62°   Visibility: 10mi
Dew Point: 48°   Wind: 6mph
Humidity: 60%   Direction: 210°SSW
Pressure: 30.02"   Gusts: NA
Location:  40.92°N, 85.28°W
Report Text: KFWA 241954Z 21005KT 10SM FEW028 BKN250 17/09 A3002 RMK AO2 SLP167 T01670089
Loading
Personal Weather Stations






























Interactive Weather Map
Tropical Storm Tracking
New forecast layout! Learn more

10-Day Weather Forecast

Advertisements
Track Severe Weather on mobile